OOCL Genoa — VROK9 — position and weather

sailwx.info

Track history (hours):
 
Tides and Currents Weather Stations Pressure Air Temp Water Temp Dewpoint Dewpoint Depression Visibility Wind Speed Wind Dir Waves Ship Positions

OOCL Genoa

Last reported at 2017-Dec-02 22:30 UTC. Time now 2017-Dec-13 20:52 UTC.
Position N 34°53' E 140°14'.
Warning: this ship's position is 10 days out of date.

Length 334 m; draft 11.6 m.

Type: Cargo ship. MMSI: 477454900.

Date/timePositionNaut miles runAvg speedWind from/ knotsBaromVisibWave heightAir tempDewpointWater temp
2017-Dec-02 22:30N 34°53' E 140°14'1020.7
2017-Dec-02 22:00N 34°48' E 140°03'1121.9
2017-Dec-02 21:30N 34°45' E 139°50'1121.7
2017-Dec-02 21:00N 34°41' E 139°38'1121.3
2017-Dec-02 20:30N 34°37' E 139°26'1421.5
2017-Dec-02 19:52N 34°32' E 139°10'721.2
2017-Dec-02 19:31N 34°28' E 139°02'1121.3
2017-Dec-02 19:00N 34°24' E 138°51'1121.8
2017-Dec-02 18:29N 34°18' E 138°38'1021.4
2017-Dec-02 18:01N 34°14' E 138°28'1121.2
2017-Dec-02 17:29N 34°08' E 138°16'1021.3
2017-Dec-02 17:00N 34°03' E 138°05'1021.3
2017-Dec-02 16:30N 33°59' E 137°54'97120.4
2017-Nov-30 16:56N 25°43' E 121°51'917.5
2017-Nov-30 16:25N 25°38' E 121°43'818.4
2017-Nov-30 16:01N 25°34' E 121°36'1019.8
2017-Nov-30 15:30N 25°28' E 121°27'1019.8
2017-Nov-30 15:01N 25°22' E 121°18'1019.1
2017-Nov-30 14:30N 25°17' E 121°09'918.5
2017-Nov-30 14:00N 25°12' E 121°01'918.3
2017-Nov-30 13:30N 25°04' E 120°55'917.9
2017-Nov-30 13:00N 24°57' E 120°49'8717.3
2017-Nov-30 07:58N 23°44' E 119°56'919.7
2017-Nov-30 07:30N 23°35' E 119°56'1019.7
2017-Nov-30 06:59N 23°25' E 119°57'919.4
2017-Nov-30 06:31N 23°16' E 119°57'1019.3
2017-Nov-30 06:00N 23°06' E 119°56'918.6
2017-Nov-30 05:30N 22°57' E 119°57'1019.9
2017-Nov-30 05:00N 22°49' E 120°04'1019.9
2017-Nov-30 04:31N 22°41' E 120°10'918.1
2017-Nov-30 04:00N 22°33' E 120°15'4 8.2
2017-Nov-30 03:31N 22°33' E 120°19'1 2.3
2017-Nov-30 03:00N 22°34' E 120°19'0 0.0
2017-Nov-30 02:21N 22°34' E 120°19'0 0.0
2017-Nov-30 01:54N 22°34' E 120°19'0 0.1
2017-Nov-30 01:24N 22°34' E 120°19'0 0.0
2017-Nov-30 01:00N 22°34' E 120°19'0 0.1
2017-Nov-30 00:24N 22°34' E 120°19'0 0.0
2017-Nov-30 00:00N 22°34' E 120°19'0 0.1
2017-Nov-29 23:21N 22°34' E 120°19'0 0.1
2017-Nov-29 22:48N 22°34' E 120°19'0 0.2
2017-Nov-29 22:30N 22°34' E 120°19'0 0.1
2017-Nov-29 21:51N 22°34' E 120°19'0 0.0
2017-Nov-29 21:27N 22°34' E 120°19'0 0.0
2017-Nov-29 21:00N 22°34' E 120°19'0 0.0
2017-Nov-29 20:30N 22°34' E 120°19'0 0.0
2017-Nov-29 19:54N 22°34' E 120°19'0 0.0
2017-Nov-29 19:21N 22°34' E 120°19'0 0.0
2017-Nov-29 19:00N 22°34' E 120°19'0 0.0
2017-Nov-29 18:27N 22°34' E 120°19'0 0.0
2017-Nov-29 18:00N 22°34' E 120°19'0 0.0
2017-Nov-29 17:30N 22°34' E 120°19'0 0.0
2017-Nov-29 17:00N 22°34' E 120°19'0 0.0
2017-Nov-29 16:30N 22°34' E 120°19'0 0.0
2017-Nov-29 15:57N 22°34' E 120°19'0 0.0
2017-Nov-29 15:30N 22°34' E 120°19'0 0.7
2017-Nov-29 15:00N 22°34' E 120°19'2 3.8
2017-Nov-29 14:30N 22°33' E 120°17'3 6.1
2017-Nov-29 14:01N 22°32' E 120°14'612.3
2017-Nov-29 13:31N 22°31' E 120°07'816.0
2017-Nov-29 13:00N 22°31' E 119°59'1019.0
2017-Nov-29 12:29N 22°30' E 119°48'315 7.0
2017-Nov-27 15:19N 22°20' E 114°07'0 0.0
2017-Nov-27 00:49N 22°20' E 114°07'282 8.4
2017-Nov-25 15:18N 22°28' E 119°12'819.9
2017-Nov-25 14:55N 22°28' E 119°20'920.2
2017-Nov-25 14:30N 22°29' E 119°29'1019.8
2017-Nov-25 13:59N 22°29' E 119°40'919.7
2017-Nov-25 13:30N 22°30' E 119°50'1019.3
2017-Nov-25 13:01N 22°31' E 120°01'1019.2
2017-Nov-25 12:30N 22°32' E 120°11'815.1
2017-Nov-25 12:00N 22°33' E 120°19'1 2.6
2017-Nov-25 11:30N 22°34' E 120°18'0 0.0
2017-Nov-25 11:00N 22°34' E 120°18'0 0.0
2017-Nov-25 10:30N 22°34' E 120°18'0 0.0
2017-Nov-25 10:00N 22°34' E 120°18'0 0.0
2017-Nov-25 09:27N 22°34' E 120°18'0 0.0
2017-Nov-25 09:00N 22°34' E 120°18'0 0.0
2017-Nov-25 08:27N 22°34' E 120°18'0 0.0
2017-Nov-25 08:00N 22°34' E 120°18'0 0.0
2017-Nov-25 07:30N 22°34' E 120°18'0 0.0
2017-Nov-25 07:00N 22°34' E 120°18'0 0.0
2017-Nov-25 06:30N 22°34' E 120°18'0 0.0
2017-Nov-25 06:00N 22°34' E 120°18'0 0.0
2017-Nov-25 05:30N 22°34' E 120°18'0 0.0
2017-Nov-25 05:00N 22°34' E 120°18'0 0.0
2017-Nov-25 04:30N 22°34' E 120°18'0 0.0
2017-Nov-25 03:57N 22°34' E 120°18'0 0.0
2017-Nov-24 21:47N 22°34' E 120°18'0 0.0
2017-Nov-24 21:20N 22°34' E 120°18'0 0.0
2017-Nov-24 20:56N 22°34' E 120°18'0 0.0
2017-Nov-24 20:20N 22°34' E 120°18'0 0.0
2017-Nov-24 19:50N 22°34' E 120°18'0 0.0
2017-Nov-24 19:26N 22°34' E 120°18'0 0.0
2017-Nov-24 18:41N 22°34' E 120°18'0 0.0
2017-Nov-24 18:20N 22°34' E 120°18'0 0.0
2017-Nov-24 17:59N 22°34' E 120°18'0 0.0
2017-Nov-24 13:38N 22°34' E 120°18'0 0.0
2017-Nov-24 13:21N 22°34' E 120°18'0 0.2
2017-Nov-24 13:00N 22°34' E 120°18'1 2.8
2017-Nov-24 12:30N 22°33' E 120°18'4 8.3
2017-Nov-24 12:00N 22°31' E 120°14'611.3
2017-Nov-24 11:31N 22°26' E 120°15'715.0
2017-Nov-24 11:01N 22°19' E 120°18'814.5
2017-Nov-24 10:29N 22°12' E 120°21'  
Track history (hours):
 
Tides and Currents Weather Stations Pressure Air Temp Water Temp Dewpoint Dewpoint Depression Visibility Wind Speed Wind Dir Waves Ship Positions

OOCL Genoa

Last reported at 2017-Dec-02 22:30 UTC. Time now 2017-Dec-13 20:52 UTC.
Position N 34°53' E 140°14'.
Warning: this ship's position is 10 days out of date.

Length 334 m; draft 11.6 m.

Type: Cargo ship. MMSI: 477454900.

Date/timePositionNaut miles runAvg speedWind from/ knotsBaromVisibWave heightAir tempDewpointWater temp
2017-Dec-02 22:30N 34°53' E 140°14'1020.7
2017-Dec-02 22:00N 34°48' E 140°03'1121.9
2017-Dec-02 21:30N 34°45' E 139°50'1121.7
2017-Dec-02 21:00N 34°41' E 139°38'1121.3
2017-Dec-02 20:30N 34°37' E 139°26'1421.5
2017-Dec-02 19:52N 34°32' E 139°10'721.2
2017-Dec-02 19:31N 34°28' E 139°02'1121.3
2017-Dec-02 19:00N 34°24' E 138°51'1121.8
2017-Dec-02 18:29N 34°18' E 138°38'1021.4
2017-Dec-02 18:01N 34°14' E 138°28'1121.2
2017-Dec-02 17:29N 34°08' E 138°16'1021.3
2017-Dec-02 17:00N 34°03' E 138°05'1021.3
2017-Dec-02 16:30N 33°59' E 137°54'97120.4
2017-Nov-30 16:56N 25°43' E 121°51'917.5
2017-Nov-30 16:25N 25°38' E 121°43'818.4
2017-Nov-30 16:01N 25°34' E 121°36'1019.8
2017-Nov-30 15:30N 25°28' E 121°27'1019.8
2017-Nov-30 15:01N 25°22' E 121°18'1019.1
2017-Nov-30 14:30N 25°17' E 121°09'918.5
2017-Nov-30 14:00N 25°12' E 121°01'918.3
2017-Nov-30 13:30N 25°04' E 120°55'917.9
2017-Nov-30 13:00N 24°57' E 120°49'8717.3
2017-Nov-30 07:58N 23°44' E 119°56'919.7
2017-Nov-30 07:30N 23°35' E 119°56'1019.7
2017-Nov-30 06:59N 23°25' E 119°57'919.4
2017-Nov-30 06:31N 23°16' E 119°57'1019.3
2017-Nov-30 06:00N 23°06' E 119°56'918.6
2017-Nov-30 05:30N 22°57' E 119°57'1019.9
2017-Nov-30 05:00N 22°49' E 120°04'1019.9
2017-Nov-30 04:31N 22°41' E 120°10'918.1
2017-Nov-30 04:00N 22°33' E 120°15'4 8.2
2017-Nov-30 03:31N 22°33' E 120°19'1 2.3
2017-Nov-30 03:00N 22°34' E 120°19'0 0.0
2017-Nov-30 02:21N 22°34' E 120°19'0 0.0
2017-Nov-30 01:54N 22°34' E 120°19'0 0.1
2017-Nov-30 01:24N 22°34' E 120°19'0 0.0
2017-Nov-30 01:00N 22°34' E 120°19'0 0.1
2017-Nov-30 00:24N 22°34' E 120°19'0 0.0
2017-Nov-30 00:00N 22°34' E 120°19'0 0.1
2017-Nov-29 23:21N 22°34' E 120°19'0 0.1
2017-Nov-29 22:48N 22°34' E 120°19'0 0.2
2017-Nov-29 22:30N 22°34' E 120°19'0 0.1
2017-Nov-29 21:51N 22°34' E 120°19'0 0.0
2017-Nov-29 21:27N 22°34' E 120°19'0 0.0
2017-Nov-29 21:00N 22°34' E 120°19'0 0.0
2017-Nov-29 20:30N 22°34' E 120°19'0 0.0
2017-Nov-29 19:54N 22°34' E 120°19'0 0.0
2017-Nov-29 19:21N 22°34' E 120°19'0 0.0
2017-Nov-29 19:00N 22°34' E 120°19'0 0.0
2017-Nov-29 18:27N 22°34' E 120°19'0 0.0
2017-Nov-29 18:00N 22°34' E 120°19'0 0.0
2017-Nov-29 17:30N 22°34' E 120°19'0 0.0
2017-Nov-29 17:00N 22°34' E 120°19'0 0.0
2017-Nov-29 16:30N 22°34' E 120°19'0 0.0
2017-Nov-29 15:57N 22°34' E 120°19'0 0.0
2017-Nov-29 15:30N 22°34' E 120°19'0 0.7
2017-Nov-29 15:00N 22°34' E 120°19'2 3.8
2017-Nov-29 14:30N 22°33' E 120°17'3 6.1
2017-Nov-29 14:01N 22°32' E 120°14'612.3
2017-Nov-29 13:31N 22°31' E 120°07'816.0
2017-Nov-29 13:00N 22°31' E 119°59'1019.0
2017-Nov-29 12:29N 22°30' E 119°48'315 7.0
2017-Nov-27 15:19N 22°20' E 114°07'0 0.0
2017-Nov-27 00:49N 22°20' E 114°07'282 8.4
2017-Nov-25 15:18N 22°28' E 119°12'819.9
2017-Nov-25 14:55N 22°28' E 119°20'920.2
2017-Nov-25 14:30N 22°29' E 119°29'1019.8
2017-Nov-25 13:59N 22°29' E 119°40'919.7
2017-Nov-25 13:30N 22°30' E 119°50'1019.3
2017-Nov-25 13:01N 22°31' E 120°01'1019.2
2017-Nov-25 12:30N 22°32' E 120°11'815.1
2017-Nov-25 12:00N 22°33' E 120°19'1 2.6
2017-Nov-25 11:30N 22°34' E 120°18'0 0.0
2017-Nov-25 11:00N 22°34' E 120°18'0 0.0
2017-Nov-25 10:30N 22°34' E 120°18'0 0.0
2017-Nov-25 10:00N 22°34' E 120°18'0 0.0
2017-Nov-25 09:27N 22°34' E 120°18'0 0.0
2017-Nov-25 09:00N 22°34' E 120°18'0 0.0
2017-Nov-25 08:27N 22°34' E 120°18'0 0.0
2017-Nov-25 08:00N 22°34' E 120°18'0 0.0
2017-Nov-25 07:30N 22°34' E 120°18'0 0.0
2017-Nov-25 07:00N 22°34' E 120°18'0 0.0
2017-Nov-25 06:30N 22°34' E 120°18'0 0.0
2017-Nov-25 06:00N 22°34' E 120°18'0 0.0
2017-Nov-25 05:30N 22°34' E 120°18'0 0.0
2017-Nov-25 05:00N 22°34' E 120°18'0 0.0
2017-Nov-25 04:30N 22°34' E 120°18'0 0.0
2017-Nov-25 03:57N 22°34' E 120°18'0 0.0
2017-Nov-24 21:47N 22°34' E 120°18'0 0.0
2017-Nov-24 21:20N 22°34' E 120°18'0 0.0
2017-Nov-24 20:56N 22°34' E 120°18'0 0.0
2017-Nov-24 20:20N 22°34' E 120°18'0 0.0
2017-Nov-24 19:50N 22°34' E 120°18'0 0.0
2017-Nov-24 19:26N 22°34' E 120°18'0 0.0
2017-Nov-24 18:41N 22°34' E 120°18'0 0.0
2017-Nov-24 18:20N 22°34' E 120°18'0 0.0
2017-Nov-24 17:59N 22°34' E 120°18'0 0.0
2017-Nov-24 13:38N 22°34' E 120°18'0 0.0
2017-Nov-24 13:21N 22°34' E 120°18'0 0.2
2017-Nov-24 13:00N 22°34' E 120°18'1 2.8
2017-Nov-24 12:30N 22°33' E 120°18'4 8.3
2017-Nov-24 12:00N 22°31' E 120°14'611.3
2017-Nov-24 11:31N 22°26' E 120°15'715.0
2017-Nov-24 11:01N 22°19' E 120°18'814.5
2017-Nov-24 10:29N 22°12' E 120°21'  

Dump ship's entire track history